sensor_id;sensor_type;location;lat;lon;timestamp;temperature;humidity
13322;DHT22;6730;46.248;6.930;2023-07-20T00:01:04;20.10;98.10
13322;DHT22;6730;46.248;6.930;2023-07-20T00:03:29;20.00;98.30
13322;DHT22;6730;46.248;6.930;2023-07-20T00:05:55;19.80;98.40
13322;DHT22;6730;46.248;6.930;2023-07-20T00:08:21;20.00;98.20
13322;DHT22;6730;46.248;6.930;2023-07-20T00:10:47;19.90;98.30
13322;DHT22;6730;46.248;6.930;2023-07-20T00:13:13;20.10;98.00
13322;DHT22;6730;46.248;6.930;2023-07-20T00:15:39;20.30;97.70
13322;DHT22;6730;46.248;6.930;2023-07-20T00:18:05;20.30;98.00
13322;DHT22;6730;46.248;6.930;2023-07-20T00:20:31;20.30;97.80
13322;DHT22;6730;46.248;6.930;2023-07-20T00:22:57;20.10;98.20
13322;DHT22;6730;46.248;6.930;2023-07-20T00:25:24;20.20;98.00
13322;DHT22;6730;46.248;6.930;2023-07-20T00:27:50;20.30;97.90
13322;DHT22;6730;46.248;6.930;2023-07-20T00:30:15;20.50;97.80
13322;DHT22;6730;46.248;6.930;2023-07-20T00:32:42;20.50;97.60
13322;DHT22;6730;46.248;6.930;2023-07-20T00:35:09;20.30;97.80
13322;DHT22;6730;46.248;6.930;2023-07-20T00:37:35;20.30;97.70
13322;DHT22;6730;46.248;6.930;2023-07-20T00:40:00;20.10;98.20
13322;DHT22;6730;46.248;6.930;2023-07-20T00:42:26;20.10;98.00
13322;DHT22;6730;46.248;6.930;2023-07-20T00:44:52;20.10;98.20
13322;DHT22;6730;46.248;6.930;2023-07-20T00:47:17;19.90;98.60
13322;DHT22;6730;46.248;6.930;2023-07-20T00:49:43;19.80;98.70
13322;DHT22;6730;46.248;6.930;2023-07-20T00:52:10;20.00;98.20
13322;DHT22;6730;46.248;6.930;2023-07-20T00:54:38;20.00;98.30
13322;DHT22;6730;46.248;6.930;2023-07-20T00:57:07;19.70;98.70
13322;DHT22;6730;46.248;6.930;2023-07-20T00:59:34;19.90;98.20
13322;DHT22;6730;46.248;6.930;2023-07-20T01:02:01;20.00;98.10
13322;DHT22;6730;46.248;6.930;2023-07-20T01:04:28;19.90;98.40
13322;DHT22;6730;46.248;6.930;2023-07-20T01:07:10;19.90;98.30
13322;DHT22;6730;46.248;6.930;2023-07-20T01:09:48;20.00;98.30
13322;DHT22;6730;46.248;6.930;2023-07-20T01:12:25;20.10;98.00
13322;DHT22;6730;46.248;6.930;2023-07-20T01:14:51;20.30;97.90
13322;DHT22;6730;46.248;6.930;2023-07-20T01:17:18;19.90;98.50
13322;DHT22;6730;46.248;6.930;2023-07-20T01:19:43;19.90;98.30
13322;DHT22;6730;46.248;6.930;2023-07-20T01:23:39;19.90;98.10
13322;DHT22;6730;46.248;6.930;2023-07-20T01:25:34;20.20;97.90
13322;DHT22;6730;46.248;6.930;2023-07-20T01:33:13;19.70;98.60
13322;DHT22;6730;46.248;6.930;2023-07-20T01:35:41;19.80;98.30
13322;DHT22;6730;46.248;6.930;2023-07-20T01:38:10;19.70;98.80
13322;DHT22;6730;46.248;6.930;2023-07-20T01:40:37;19.60;99.00
13322;DHT22;6730;46.248;6.930;2023-07-20T01:43:04;19.40;99.30
13322;DHT22;6730;46.248;6.930;2023-07-20T01:45:29;19.10;99.90
13322;DHT22;6730;46.248;6.930;2023-07-20T01:47:55;18.90;99.90
13322;DHT22;6730;46.248;6.930;2023-07-20T01:50:21;18.80;99.90
13322;DHT22;6730;46.248;6.930;2023-07-20T01:52:46;18.60;99.90
13322;DHT22;6730;46.248;6.930;2023-07-20T01:55:12;18.70;99.90
13322;DHT22;6730;46.248;6.930;2023-07-20T01:57:38;18.90;99.90
13322;DHT22;6730;46.248;6.930;2023-07-20T02:00:04;18.90;99.90
13322;DHT22;6730;46.248;6.930;2023-07-20T02:02:30;18.80;99.90
13322;DHT22;6730;46.248;6.930;2023-07-20T02:04:55;18.90;99.90
13322;DHT22;6730;46.248;6.930;2023-07-20T02:07:21;18.60;99.90
13322;DHT22;6730;46.248;6.930;2023-07-20T02:09:47;18.40;99.90
13322;DHT22;6730;46.248;6.930;2023-07-20T02:12:12;18.40;99.90
13322;DHT22;6730;46.248;6.930;2023-07-20T02:14:38;18.60;99.90
13322;DHT22;6730;46.248;6.930;2023-07-20T02:17:04;19.00;99.90
13322;DHT22;6730;46.248;6.930;2023-07-20T02:19:30;19.10;99.90
13322;DHT22;6730;46.248;6.930;2023-07-20T02:21:56;18.90;99.90
13322;DHT22;6730;46.248;6.930;2023-07-20T02:24:21;18.70;99.90
13322;DHT22;6730;46.248;6.930;2023-07-20T02:26:47;18.50;99.90
13322;DHT22;6730;46.248;6.930;2023-07-20T02:29:13;18.50;99.90
13322;DHT22;6730;46.248;6.930;2023-07-20T02:31:39;18.60;99.90
13322;DHT22;6730;46.248;6.930;2023-07-20T02:34:05;18.70;99.90
13322;DHT22;6730;46.248;6.930;2023-07-20T02:36:32;18.70;99.90
13322;DHT22;6730;46.248;6.930;2023-07-20T02:39:00;18.70;99.90
13322;DHT22;6730;46.248;6.930;2023-07-20T02:41:27;18.70;99.90
13322;DHT22;6730;46.248;6.930;2023-07-20T02:43:53;18.40;99.90
13322;DHT22;6730;46.248;6.930;2023-07-20T02:46:19;18.20;99.90
13322;DHT22;6730;46.248;6.930;2023-07-20T02:48:44;18.10;99.90
13322;DHT22;6730;46.248;6.930;2023-07-20T02:51:10;18.20;99.90
13322;DHT22;6730;46.248;6.930;2023-07-20T02:53:37;18.00;99.90
13322;DHT22;6730;46.248;6.930;2023-07-20T02:56:03;18.10;99.90
13322;DHT22;6730;46.248;6.930;2023-07-20T02:58:29;18.10;99.90
13322;DHT22;6730;46.248;6.930;2023-07-20T03:00:55;18.40;99.90
13322;DHT22;6730;46.248;6.930;2023-07-20T03:03:20;18.60;99.90
13322;DHT22;6730;46.248;6.930;2023-07-20T03:05:46;18.70;99.90
13322;DHT22;6730;46.248;6.930;2023-07-20T03:08:11;18.70;99.90
13322;DHT22;6730;46.248;6.930;2023-07-20T03:10:41;18.80;99.90
13322;DHT22;6730;46.248;6.930;2023-07-20T03:13:07;18.90;99.90
13322;DHT22;6730;46.248;6.930;2023-07-20T03:15:33;18.90;99.90
13322;DHT22;6730;46.248;6.930;2023-07-20T03:17:59;19.00;99.90
13322;DHT22;6730;46.248;6.930;2023-07-20T03:20:25;18.80;99.90
13322;DHT22;6730;46.248;6.930;2023-07-20T03:22:51;18.80;99.90
13322;DHT22;6730;46.248;6.930;2023-07-20T03:25:16;18.60;99.90
13322;DHT22;6730;46.248;6.930;2023-07-20T03:27:43;18.50;99.90
13322;DHT22;6730;46.248;6.930;2023-07-20T03:30:08;18.70;99.90
13322;DHT22;6730;46.248;6.930;2023-07-20T03:32:35;18.90;99.90
13322;DHT22;6730;46.248;6.930;2023-07-20T03:35:01;18.90;99.90
13322;DHT22;6730;46.248;6.930;2023-07-20T03:37:27;19.00;99.90
13322;DHT22;6730;46.248;6.930;2023-07-20T03:39:52;18.80;99.90
13322;DHT22;6730;46.248;6.930;2023-07-20T03:42:18;18.60;99.90
13322;DHT22;6730;46.248;6.930;2023-07-20T03:44:44;18.30;99.90
13322;DHT22;6730;46.248;6.930;2023-07-20T03:47:09;18.60;99.90
13322;DHT22;6730;46.248;6.930;2023-07-20T03:49:35;18.80;99.90
13322;DHT22;6730;46.248;6.930;2023-07-20T03:52:01;18.90;99.90
13322;DHT22;6730;46.248;6.930;2023-07-20T03:54:29;18.70;99.90
13322;DHT22;6730;46.248;6.930;2023-07-20T03:56:54;18.70;99.90
13322;DHT22;6730;46.248;6.930;2023-07-20T03:59:20;18.70;99.90
13322;DHT22;6730;46.248;6.930;2023-07-20T04:01:46;18.80;99.90
13322;DHT22;6730;46.248;6.930;2023-07-20T04:04:12;18.60;99.90
13322;DHT22;6730;46.248;6.930;2023-07-20T04:06:37;18.60;99.90
13322;DHT22;6730;46.248;6.930;2023-07-20T04:09:03;18.30;99.90
13322;DHT22;6730;46.248;6.930;2023-07-20T04:11:30;17.90;99.90
13322;DHT22;6730;46.248;6.930;2023-07-20T04:13:56;17.80;99.90
13322;DHT22;6730;46.248;6.930;2023-07-20T04:16:22;18.00;99.90
13322;DHT22;6730;46.248;6.930;2023-07-20T04:18:47;18.20;99.90
13322;DHT22;6730;46.248;6.930;2023-07-20T04:21:13;18.60;99.90
13322;DHT22;6730;46.248;6.930;2023-07-20T04:23:39;18.80;99.90
13322;DHT22;6730;46.248;6.930;2023-07-20T04:26:04;18.90;99.90
13322;DHT22;6730;46.248;6.930;2023-07-20T04:28:32;18.80;99.90
13322;DHT22;6730;46.248;6.930;2023-07-20T04:31:13;19.00;99.90
13322;DHT22;6730;46.248;6.930;2023-07-20T04:33:39;19.00;99.90
13322;DHT22;6730;46.248;6.930;2023-07-20T04:36:05;18.90;99.90
13322;DHT22;6730;46.248;6.930;2023-07-20T04:38:31;18.90;99.90
13322;DHT22;6730;46.248;6.930;2023-07-20T04:40:56;19.00;99.90
13322;DHT22;6730;46.248;6.930;2023-07-20T04:43:22;19.00;99.90
13322;DHT22;6730;46.248;6.930;2023-07-20T04:45:48;19.30;99.90
13322;DHT22;6730;46.248;6.930;2023-07-20T04:48:15;19.70;99.90
13322;DHT22;6730;46.248;6.930;2023-07-20T04:50:43;19.90;99.70
13322;DHT22;6730;46.248;6.930;2023-07-20T04:53:11;20.10;99.50
13322;DHT22;6730;46.248;6.930;2023-07-20T04:55:37;20.20;99.30
13322;DHT22;6730;46.248;6.930;2023-07-20T04:58:03;20.40;99.20
13322;DHT22;6730;46.248;6.930;2023-07-20T05:00:30;20.50;99.00
13322;DHT22;6730;46.248;6.930;2023-07-20T05:02:56;20.70;98.80
13322;DHT22;6730;46.248;6.930;2023-07-20T05:05:22;20.80;98.60
13322;DHT22;6730;46.248;6.930;2023-07-20T05:07:47;20.90;98.60
13322;DHT22;6730;46.248;6.930;2023-07-20T05:10:13;20.20;99.90
13322;DHT22;6730;46.248;6.930;2023-07-20T05:12:39;19.70;99.90
13322;DHT22;6730;46.248;6.930;2023-07-20T05:15:05;19.30;99.90
13322;DHT22;6730;46.248;6.930;2023-07-20T05:17:30;19.20;99.90
13322;DHT22;6730;46.248;6.930;2023-07-20T05:19:56;19.10;99.90
13322;DHT22;6730;46.248;6.930;2023-07-20T05:22:22;19.20;99.90
13322;DHT22;6730;46.248;6.930;2023-07-20T05:24:48;19.20;99.90
13322;DHT22;6730;46.248;6.930;2023-07-20T05:27:14;19.20;99.90
13322;DHT22;6730;46.248;6.930;2023-07-20T05:29:49;19.10;99.90
13322;DHT22;6730;46.248;6.930;2023-07-20T05:32:14;19.00;99.90
13322;DHT22;6730;46.248;6.930;2023-07-20T05:34:40;19.10;99.90
13322;DHT22;6730;46.248;6.930;2023-07-20T05:37:06;19.10;99.90
13322;DHT22;6730;46.248;6.930;2023-07-20T05:39:35;19.30;99.90
13322;DHT22;6730;46.248;6.930;2023-07-20T05:42:00;19.40;99.90
13322;DHT22;6730;46.248;6.930;2023-07-20T05:44:26;19.50;99.90
13322;DHT22;6730;46.248;6.930;2023-07-20T05:46:52;19.50;99.90
13322;DHT22;6730;46.248;6.930;2023-07-20T05:49:18;19.50;99.90
13322;DHT22;6730;46.248;6.930;2023-07-20T05:51:43;19.60;99.90
13322;DHT22;6730;46.248;6.930;2023-07-20T05:54:09;19.90;99.90
13322;DHT22;6730;46.248;6.930;2023-07-20T05:56:34;20.10;99.90
13322;DHT22;6730;46.248;6.930;2023-07-20T05:59:00;20.40;99.90
13322;DHT22;6730;46.248;6.930;2023-07-20T06:01:26;20.50;99.90
13322;DHT22;6730;46.248;6.930;2023-07-20T06:03:53;20.70;99.90
13322;DHT22;6730;46.248;6.930;2023-07-20T06:06:19;20.70;99.90
13322;DHT22;6730;46.248;6.930;2023-07-20T06:08:48;20.50;99.90
13322;DHT22;6730;46.248;6.930;2023-07-20T06:11:13;20.90;99.90
13322;DHT22;6730;46.248;6.930;2023-07-20T06:13:39;21.00;99.90
13322;DHT22;6730;46.248;6.930;2023-07-20T06:16:05;21.00;99.90
13322;DHT22;6730;46.248;6.930;2023-07-20T06:18:30;21.10;99.60
13322;DHT22;6730;46.248;6.930;2023-07-20T06:20:56;21.20;99.90
13322;DHT22;6730;46.248;6.930;2023-07-20T06:23:22;21.30;99.90
13322;DHT22;6730;46.248;6.930;2023-07-20T06:25:48;21.50;99.90
13322;DHT22;6730;46.248;6.930;2023-07-20T06:28:14;21.80;99.90
13322;DHT22;6730;46.248;6.930;2023-07-20T06:30:40;22.00;99.00
13322;DHT22;6730;46.248;6.930;2023-07-20T06:33:06;22.10;99.40
13322;DHT22;6730;46.248;6.930;2023-07-20T06:35:32;22.00;99.40
13322;DHT22;6730;46.248;6.930;2023-07-20T06:37:57;21.60;99.50
13322;DHT22;6730;46.248;6.930;2023-07-20T06:40:25;21.70;99.20
13322;DHT22;6730;46.248;6.930;2023-07-20T06:42:51;21.90;99.90
13322;DHT22;6730;46.248;6.930;2023-07-20T06:45:17;22.10;99.50
13322;DHT22;6730;46.248;6.930;2023-07-20T06:47:42;22.60;99.20
13322;DHT22;6730;46.248;6.930;2023-07-20T06:50:09;22.50;98.60
13322;DHT22;6730;46.248;6.930;2023-07-20T06:52:35;22.40;99.70
13322;DHT22;6730;46.248;6.930;2023-07-20T06:55:01;22.80;98.70
13322;DHT22;6730;46.248;6.930;2023-07-20T06:57:27;22.70;98.10
13322;DHT22;6730;46.248;6.930;2023-07-20T06:59:52;22.50;99.10
13322;DHT22;6730;46.248;6.930;2023-07-20T07:02:19;22.50;98.20
13322;DHT22;6730;46.248;6.930;2023-07-20T07:04:44;22.20;98.60
13322;DHT22;6730;46.248;6.930;2023-07-20T07:07:18;22.40;98.80
13322;DHT22;6730;46.248;6.930;2023-07-20T07:09:43;22.50;98.60
13322;DHT22;6730;46.248;6.930;2023-07-20T07:12:09;22.90;99.20
13322;DHT22;6730;46.248;6.930;2023-07-20T07:14:35;23.00;99.50
13322;DHT22;6730;46.248;6.930;2023-07-20T07:17:00;23.00;97.80
13322;DHT22;6730;46.248;6.930;2023-07-20T07:19:26;23.20;98.50
13322;DHT22;6730;46.248;6.930;2023-07-20T07:21:52;23.30;97.40
13322;DHT22;6730;46.248;6.930;2023-07-20T07:24:21;23.40;97.10
13322;DHT22;6730;46.248;6.930;2023-07-20T07:26:47;23.10;98.60
13322;DHT22;6730;46.248;6.930;2023-07-20T07:29:12;23.10;98.90
13322;DHT22;6730;46.248;6.930;2023-07-20T07:31:38;23.20;98.00
13322;DHT22;6730;46.248;6.930;2023-07-20T07:34:04;22.80;99.60
13322;DHT22;6730;46.248;6.930;2023-07-20T07:36:31;23.00;99.10
13322;DHT22;6730;46.248;6.930;2023-07-20T07:38:57;23.40;98.00
13322;DHT22;6730;46.248;6.930;2023-07-20T07:41:22;23.60;99.30
13322;DHT22;6730;46.248;6.930;2023-07-20T07:43:48;24.30;97.30
13322;DHT22;6730;46.248;6.930;2023-07-20T07:46:14;24.20;97.70
13322;DHT22;6730;46.248;6.930;2023-07-20T07:48:40;24.00;98.60
13322;DHT22;6730;46.248;6.930;2023-07-20T07:51:05;23.80;97.80
13322;DHT22;6730;46.248;6.930;2023-07-20T07:53:31;24.50;98.40
13322;DHT22;6730;46.248;6.930;2023-07-20T07:55:58;24.20;97.00
13322;DHT22;6730;46.248;6.930;2023-07-20T07:58:24;24.50;96.90
13322;DHT22;6730;46.248;6.930;2023-07-20T08:00:50;24.50;96.90
13322;DHT22;6730;46.248;6.930;2023-07-20T08:03:15;24.80;96.60
13322;DHT22;6730;46.248;6.930;2023-07-20T08:05:41;25.50;97.10
13322;DHT22;6730;46.248;6.930;2023-07-20T08:08:07;25.60;95.90
13322;DHT22;6730;46.248;6.930;2023-07-20T08:10:34;24.80;96.30
13322;DHT22;6730;46.248;6.930;2023-07-20T08:13:00;24.80;95.80
13322;DHT22;6730;46.248;6.930;2023-07-20T08:15:25;25.20;97.30
13322;DHT22;6730;46.248;6.930;2023-07-20T08:17:51;25.90;96.30
13322;DHT22;6730;46.248;6.930;2023-07-20T08:20:17;25.70;94.80
13322;DHT22;6730;46.248;6.930;2023-07-20T08:22:43;24.60;95.60
13322;DHT22;6730;46.248;6.930;2023-07-20T08:25:14;24.40;97.40
13322;DHT22;6730;46.248;6.930;2023-07-20T08:27:42;24.60;96.70
13322;DHT22;6730;46.248;6.930;2023-07-20T08:30:08;25.20;97.30
13322;DHT22;6730;46.248;6.930;2023-07-20T08:32:34;25.40;95.40
13322;DHT22;6730;46.248;6.930;2023-07-20T08:35:08;25.80;95.00
13322;DHT22;6730;46.248;6.930;2023-07-20T08:37:34;25.50;95.80
13322;DHT22;6730;46.248;6.930;2023-07-20T08:40:00;25.60;95.80
13322;DHT22;6730;46.248;6.930;2023-07-20T08:42:27;25.50;95.20
13322;DHT22;6730;46.248;6.930;2023-07-20T08:44:53;25.00;95.70
13322;DHT22;6730;46.248;6.930;2023-07-20T08:47:20;24.20;95.90
13322;DHT22;6730;46.248;6.930;2023-07-20T08:49:50;24.60;95.60
13322;DHT22;6730;46.248;6.930;2023-07-20T08:52:16;24.90;96.30
13322;DHT22;6730;46.248;6.930;2023-07-20T08:54:42;24.70;96.80
13322;DHT22;6730;46.248;6.930;2023-07-20T08:57:08;24.40;96.20
13322;DHT22;6730;46.248;6.930;2023-07-20T08:59:38;24.60;96.60
13322;DHT22;6730;46.248;6.930;2023-07-20T09:02:04;24.20;97.00
13322;DHT22;6730;46.248;6.930;2023-07-20T09:04:31;24.40;97.00
13322;DHT22;6730;46.248;6.930;2023-07-20T09:06:58;24.30;98.40
13322;DHT22;6730;46.248;6.930;2023-07-20T09:09:33;24.60;96.30
13322;DHT22;6730;46.248;6.930;2023-07-20T09:11:58;24.40;97.30
13322;DHT22;6730;46.248;6.930;2023-07-20T09:14:25;25.10;96.20
13322;DHT22;6730;46.248;6.930;2023-07-20T09:16:53;25.10;96.10
13322;DHT22;6730;46.248;6.930;2023-07-20T09:19:20;25.20;96.00
13322;DHT22;6730;46.248;6.930;2023-07-20T09:21:47;24.90;97.40
13322;DHT22;6730;46.248;6.930;2023-07-20T09:24:14;25.70;96.10
13322;DHT22;6730;46.248;6.930;2023-07-20T09:26:42;25.70;96.20
13322;DHT22;6730;46.248;6.930;2023-07-20T09:29:08;26.00;95.80
13322;DHT22;6730;46.248;6.930;2023-07-20T09:31:37;25.40;95.70
13322;DHT22;6730;46.248;6.930;2023-07-20T09:34:06;25.20;95.40
13322;DHT22;6730;46.248;6.930;2023-07-20T09:36:36;25.10;96.40
13322;DHT22;6730;46.248;6.930;2023-07-20T09:39:03;26.00;96.10
13322;DHT22;6730;46.248;6.930;2023-07-20T09:41:30;26.20;94.70
13322;DHT22;6730;46.248;6.930;2023-07-20T09:44:04;25.30;95.70
13322;DHT22;6730;46.248;6.930;2023-07-20T09:46:45;25.10;95.70
13322;DHT22;6730;46.248;6.930;2023-07-20T09:49:11;25.60;95.90
13322;DHT22;6730;46.248;6.930;2023-07-20T09:51:37;26.50;95.30
13322;DHT22;6730;46.248;6.930;2023-07-20T09:54:04;26.60;96.30
13322;DHT22;6730;46.248;6.930;2023-07-20T09:56:30;27.20;95.10
13322;DHT22;6730;46.248;6.930;2023-07-20T09:58:56;27.20;95.00
13322;DHT22;6730;46.248;6.930;2023-07-20T10:01:22;27.00;94.90
13322;DHT22;6730;46.248;6.930;2023-07-20T10:03:51;27.10;96.20
13322;DHT22;6730;46.248;6.930;2023-07-20T10:06:22;26.60;94.90
13322;DHT22;6730;46.248;6.930;2023-07-20T10:08:52;26.80;94.70
13322;DHT22;6730;46.248;6.930;2023-07-20T10:11:18;26.90;95.20
13322;DHT22;6730;46.248;6.930;2023-07-20T10:13:51;26.80;94.10
13322;DHT22;6730;46.248;6.930;2023-07-20T10:16:28;26.70;94.30
13322;DHT22;6730;46.248;6.930;2023-07-20T10:22:07;26.90;93.60
13322;DHT22;6730;46.248;6.930;2023-07-20T10:24:36;26.20;94.50
13322;DHT22;6730;46.248;6.930;2023-07-20T10:27:02;26.30;94.50
13322;DHT22;6730;46.248;6.930;2023-07-20T10:29:29;26.20;94.10
13322;DHT22;6730;46.248;6.930;2023-07-20T10:31:55;26.30;94.80
13322;DHT22;6730;46.248;6.930;2023-07-20T10:34:22;26.40;94.10
13322;DHT22;6730;46.248;6.930;2023-07-20T10:36:48;26.30;94.00
13322;DHT22;6730;46.248;6.930;2023-07-20T10:39:31;26.10;93.90
13322;DHT22;6730;46.248;6.930;2023-07-20T10:42:06;26.20;94.40
13322;DHT22;6730;46.248;6.930;2023-07-20T10:44:33;26.50;95.20
13322;DHT22;6730;46.248;6.930;2023-07-20T10:47:03;26.20;94.80
13322;DHT22;6730;46.248;6.930;2023-07-20T10:49:33;26.10;94.90
13322;DHT22;6730;46.248;6.930;2023-07-20T10:52:03;26.40;93.80
13322;DHT22;6730;46.248;6.930;2023-07-20T10:57:28;26.40;93.30
13322;DHT22;6730;46.248;6.930;2023-07-20T11:00:10;26.30;94.60
13322;DHT22;6730;46.248;6.930;2023-07-20T11:02:44;26.20;94.10
13322;DHT22;6730;46.248;6.930;2023-07-20T11:05:32;26.20;94.20
13322;DHT22;6730;46.248;6.930;2023-07-20T11:07:59;26.10;94.10
13322;DHT22;6730;46.248;6.930;2023-07-20T11:10:24;26.10;94.50
13322;DHT22;6730;46.248;6.930;2023-07-20T11:15:48;26.20;93.90
13322;DHT22;6730;46.248;6.930;2023-07-20T11:18:14;26.30;94.50
13322;DHT22;6730;46.248;6.930;2023-07-20T11:20:40;26.50;93.80
13322;DHT22;6730;46.248;6.930;2023-07-20T11:23:07;26.60;94.40
13322;DHT22;6730;46.248;6.930;2023-07-20T11:25:39;26.50;94.30
13322;DHT22;6730;46.248;6.930;2023-07-20T11:28:09;26.30;93.40
13322;DHT22;6730;46.248;6.930;2023-07-20T11:30:37;26.20;94.90
13322;DHT22;6730;46.248;6.930;2023-07-20T11:33:03;26.30;94.40
13322;DHT22;6730;46.248;6.930;2023-07-20T11:35:29;26.40;93.60
13322;DHT22;6730;46.248;6.930;2023-07-20T11:37:55;26.30;93.80
13322;DHT22;6730;46.248;6.930;2023-07-20T11:40:22;26.10;94.00
13322;DHT22;6730;46.248;6.930;2023-07-20T11:42:49;26.10;94.10
13322;DHT22;6730;46.248;6.930;2023-07-20T11:45:16;26.00;94.00
13322;DHT22;6730;46.248;6.930;2023-07-20T11:47:43;26.10;93.70
13322;DHT22;6730;46.248;6.930;2023-07-20T11:50:10;26.10;93.70
13322;DHT22;6730;46.248;6.930;2023-07-20T11:52:36;25.80;93.70
13322;DHT22;6730;46.248;6.930;2023-07-20T11:55:03;26.00;94.30
13322;DHT22;6730;46.248;6.930;2023-07-20T11:57:29;25.90;94.10
13322;DHT22;6730;46.248;6.930;2023-07-20T11:59:56;25.70;93.90
13322;DHT22;6730;46.248;6.930;2023-07-20T12:02:30;25.90;93.40
13322;DHT22;6730;46.248;6.930;2023-07-20T12:04:56;26.00;93.50
13322;DHT22;6730;46.248;6.930;2023-07-20T12:07:22;26.10;93.50
13322;DHT22;6730;46.248;6.930;2023-07-20T12:12:34;26.40;92.70
13322;DHT22;6730;46.248;6.930;2023-07-20T12:15:32;26.20;93.20
13322;DHT22;6730;46.248;6.930;2023-07-20T12:17:59;26.10;93.40
13322;DHT22;6730;46.248;6.930;2023-07-20T12:20:33;26.00;93.30
13322;DHT22;6730;46.248;6.930;2023-07-20T12:23:02;26.00;93.30
13322;DHT22;6730;46.248;6.930;2023-07-20T12:25:36;25.90;93.50
13322;DHT22;6730;46.248;6.930;2023-07-20T12:28:04;26.20;93.40
13322;DHT22;6730;46.248;6.930;2023-07-20T12:30:30;26.20;93.50
13322;DHT22;6730;46.248;6.930;2023-07-20T12:32:56;26.20;92.70
13322;DHT22;6730;46.248;6.930;2023-07-20T12:35:21;25.90;92.90
13322;DHT22;6730;46.248;6.930;2023-07-20T12:37:47;26.00;92.90
13322;DHT22;6730;46.248;6.930;2023-07-20T12:40:14;25.90;92.10
13322;DHT22;6730;46.248;6.930;2023-07-20T12:42:40;25.90;92.70
13322;DHT22;6730;46.248;6.930;2023-07-20T12:45:06;25.90;92.40
13322;DHT22;6730;46.248;6.930;2023-07-20T12:47:32;25.90;92.20
13322;DHT22;6730;46.248;6.930;2023-07-20T12:49:58;25.80;92.20
13322;DHT22;6730;46.248;6.930;2023-07-20T12:52:24;25.90;92.10
13322;DHT22;6730;46.248;6.930;2023-07-20T12:54:49;25.90;91.40
13322;DHT22;6730;46.248;6.930;2023-07-20T12:57:15;25.80;91.90
13322;DHT22;6730;46.248;6.930;2023-07-20T12:59:41;26.00;91.30
13322;DHT22;6730;46.248;6.930;2023-07-20T13:02:06;25.90;91.30
13322;DHT22;6730;46.248;6.930;2023-07-20T13:04:32;25.90;90.60
13322;DHT22;6730;46.248;6.930;2023-07-20T13:06:58;25.90;90.70
13322;DHT22;6730;46.248;6.930;2023-07-20T13:09:24;26.10;90.70
13322;DHT22;6730;46.248;6.930;2023-07-20T13:11:50;26.20;90.30
13322;DHT22;6730;46.248;6.930;2023-07-20T13:14:17;26.20;90.30
13322;DHT22;6730;46.248;6.930;2023-07-20T13:16:43;26.30;90.30
13322;DHT22;6730;46.248;6.930;2023-07-20T13:19:08;26.30;90.40
13322;DHT22;6730;46.248;6.930;2023-07-20T13:21:34;26.60;90.40
13322;DHT22;6730;46.248;6.930;2023-07-20T13:24:00;26.50;90.80
13322;DHT22;6730;46.248;6.930;2023-07-20T13:26:25;26.60;91.10
13322;DHT22;6730;46.248;6.930;2023-07-20T13:28:51;26.50;90.80
13322;DHT22;6730;46.248;6.930;2023-07-20T13:31:17;26.50;91.00
13322;DHT22;6730;46.248;6.930;2023-07-20T13:33:43;26.40;91.30
13322;DHT22;6730;46.248;6.930;2023-07-20T13:36:09;26.40;91.00
13322;DHT22;6730;46.248;6.930;2023-07-20T13:38:34;26.50;91.30
13322;DHT22;6730;46.248;6.930;2023-07-20T13:41:00;26.40;91.60
13322;DHT22;6730;46.248;6.930;2023-07-20T13:43:26;26.50;91.10
13322;DHT22;6730;46.248;6.930;2023-07-20T13:45:51;26.50;91.00
13322;DHT22;6730;46.248;6.930;2023-07-20T13:48:17;26.40;91.50
13322;DHT22;6730;46.248;6.930;2023-07-20T13:50:45;26.30;91.10
13322;DHT22;6730;46.248;6.930;2023-07-20T13:53:11;26.30;90.60
13322;DHT22;6730;46.248;6.930;2023-07-20T13:55:38;26.30;90.40
13322;DHT22;6730;46.248;6.930;2023-07-20T13:58:04;26.10;88.80
13322;DHT22;6730;46.248;6.930;2023-07-20T14:00:30;26.10;89.20
13322;DHT22;6730;46.248;6.930;2023-07-20T14:02:58;26.00;88.20
13322;DHT22;6730;46.248;6.930;2023-07-20T14:05:25;25.90;87.30
13322;DHT22;6730;46.248;6.930;2023-07-20T14:07:51;26.20;86.10
13322;DHT22;6730;46.248;6.930;2023-07-20T14:10:16;26.20;86.70
13322;DHT22;6730;46.248;6.930;2023-07-20T14:12:42;26.10;86.10
13322;DHT22;6730;46.248;6.930;2023-07-20T14:15:09;26.30;85.60
13322;DHT22;6730;46.248;6.930;2023-07-20T14:17:35;26.20;84.30
13322;DHT22;6730;46.248;6.930;2023-07-20T14:20:00;26.20;84.90
13322;DHT22;6730;46.248;6.930;2023-07-20T14:22:26;26.30;84.60
13322;DHT22;6730;46.248;6.930;2023-07-20T14:24:52;26.30;85.30
13322;DHT22;6730;46.248;6.930;2023-07-20T14:27:17;26.30;84.40
13322;DHT22;6730;46.248;6.930;2023-07-20T14:29:43;26.30;84.60
13322;DHT22;6730;46.248;6.930;2023-07-20T14:32:09;26.40;84.20
13322;DHT22;6730;46.248;6.930;2023-07-20T14:34:34;26.50;85.60
13322;DHT22;6730;46.248;6.930;2023-07-20T14:37:01;26.50;84.70
13322;DHT22;6730;46.248;6.930;2023-07-20T14:39:27;26.20;84.30
13322;DHT22;6730;46.248;6.930;2023-07-20T14:41:53;26.00;84.50
13322;DHT22;6730;46.248;6.930;2023-07-20T14:44:19;26.10;85.20
13322;DHT22;6730;46.248;6.930;2023-07-20T14:46:46;26.30;85.80
13322;DHT22;6730;46.248;6.930;2023-07-20T14:49:11;26.30;85.30
13322;DHT22;6730;46.248;6.930;2023-07-20T14:51:40;26.30;85.40
13322;DHT22;6730;46.248;6.930;2023-07-20T14:54:11;26.40;85.50
13322;DHT22;6730;46.248;6.930;2023-07-20T14:56:38;26.30;85.20
13322;DHT22;6730;46.248;6.930;2023-07-20T14:59:04;26.50;85.70
13322;DHT22;6730;46.248;6.930;2023-07-20T15:01:31;26.50;86.00
13322;DHT22;6730;46.248;6.930;2023-07-20T15:03:57;26.70;86.30
13322;DHT22;6730;46.248;6.930;2023-07-20T15:06:23;26.90;86.00
13322;DHT22;6730;46.248;6.930;2023-07-20T15:08:49;27.10;87.20
13322;DHT22;6730;46.248;6.930;2023-07-20T15:11:14;27.00;85.90
13322;DHT22;6730;46.248;6.930;2023-07-20T15:13:40;27.00;86.40
13322;DHT22;6730;46.248;6.930;2023-07-20T15:16:08;27.00;87.10
13322;DHT22;6730;46.248;6.930;2023-07-20T15:18:36;27.10;87.00
13322;DHT22;6730;46.248;6.930;2023-07-20T15:21:01;26.80;87.20
13322;DHT22;6730;46.248;6.930;2023-07-20T15:23:27;26.90;87.20
13322;DHT22;6730;46.248;6.930;2023-07-20T15:25:53;27.00;87.50
13322;DHT22;6730;46.248;6.930;2023-07-20T15:28:18;27.00;87.60
13322;DHT22;6730;46.248;6.930;2023-07-20T15:30:44;27.00;86.70
13322;DHT22;6730;46.248;6.930;2023-07-20T15:33:10;26.90;87.30
13322;DHT22;6730;46.248;6.930;2023-07-20T15:35:36;27.00;87.40
13322;DHT22;6730;46.248;6.930;2023-07-20T15:38:02;27.10;87.00
13322;DHT22;6730;46.248;6.930;2023-07-20T15:40:27;27.00;86.30
13322;DHT22;6730;46.248;6.930;2023-07-20T15:42:53;27.00;86.90
13322;DHT22;6730;46.248;6.930;2023-07-20T15:45:20;27.00;86.50
13322;DHT22;6730;46.248;6.930;2023-07-20T15:47:45;27.00;86.70
13322;DHT22;6730;46.248;6.930;2023-07-20T15:50:11;27.10;87.50
13322;DHT22;6730;46.248;6.930;2023-07-20T15:52:37;27.20;87.40
13322;DHT22;6730;46.248;6.930;2023-07-20T15:55:02;27.20;86.90
13322;DHT22;6730;46.248;6.930;2023-07-20T15:57:30;27.20;87.00
13322;DHT22;6730;46.248;6.930;2023-07-20T15:59:55;27.40;87.30